createdAt,value
2019-03-22T00:02:02.685Z,26.87
2019-03-22T00:04:34.461Z,37.83
2019-03-22T00:07:06.122Z,28.83
2019-03-22T00:09:37.659Z,31.83
2019-03-22T00:12:09.234Z,28.97
2019-03-22T00:14:40.859Z,33.10
2019-03-22T00:17:12.502Z,32.40
2019-03-22T00:19:44.038Z,29.47
2019-03-22T00:22:15.595Z,34.37
2019-03-22T00:24:47.199Z,32.80
2019-03-22T00:27:18.769Z,31.53
2019-03-22T00:29:50.336Z,27.37
2019-03-22T00:32:21.958Z,26.87
2019-03-22T00:34:53.519Z,34.60
2019-03-22T00:37:25.072Z,30.90
2019-03-22T00:39:56.665Z,27.77
2019-03-22T00:42:28.288Z,30.40
2019-03-22T00:44:59.882Z,38.97
2019-03-22T00:47:31.491Z,32.33
2019-03-22T00:50:03.446Z,29.30
2019-03-22T00:52:35.018Z,32.17
2019-03-22T00:55:07.359Z,27.30
2019-03-22T00:57:38.906Z,29.90
2019-03-22T01:00:10.549Z,31.00
2019-03-22T01:02:42.189Z,31.03
2019-03-22T01:05:14.403Z,32.40
2019-03-22T01:07:45.996Z,28.27
2019-03-22T01:10:17.732Z,32.20
2019-03-22T01:12:50.624Z,34.50
2019-03-22T01:15:22.255Z,29.90
2019-03-22T01:17:53.818Z,36.70
2019-03-22T01:20:25.366Z,27.07
2019-03-22T01:22:56.957Z,30.83
2019-03-22T01:25:28.495Z,28.30
2019-03-22T01:28:00.127Z,43.53
2019-03-22T01:30:31.782Z,31.27
2019-03-22T01:33:03.434Z,30.23
2019-03-22T01:35:35.143Z,28.40
2019-03-22T01:38:06.719Z,30.80
2019-03-22T01:40:38.298Z,31.10
2019-03-22T01:43:09.910Z,28.93
2019-03-22T01:45:41.491Z,29.53
2019-03-22T01:48:13.138Z,30.33
2019-03-22T01:50:44.775Z,32.10
2019-03-22T01:53:16.336Z,32.67
2019-03-22T01:55:47.909Z,29.83
2019-03-22T01:58:19.531Z,33.63
2019-03-22T02:00:51.076Z,27.73
2019-03-22T02:03:22.742Z,29.00
2019-03-22T02:05:54.302Z,29.27
2019-03-22T02:08:25.955Z,32.30
2019-03-22T02:10:57.499Z,26.90
2019-03-22T02:13:29.104Z,30.10
2019-03-22T02:16:00.682Z,29.37
2019-03-22T02:18:32.295Z,29.73
2019-03-22T02:21:04.018Z,29.47
2019-03-22T02:23:35.733Z,27.37
2019-03-22T02:26:07.667Z,31.47
2019-03-22T02:28:39.320Z,27.93
2019-03-22T02:31:10.888Z,29.70
2019-03-22T02:33:42.507Z,26.80
2019-03-22T02:36:14.042Z,25.73
2019-03-22T02:38:45.668Z,31.13
2019-03-22T02:41:17.318Z,30.53
2019-03-22T02:43:48.940Z,28.60
2019-03-22T02:46:20.564Z,28.43
2019-03-22T02:48:52.110Z,33.67
2019-03-22T02:51:23.668Z,27.47
2019-03-22T02:53:55.288Z,27.80
2019-03-22T02:56:26.937Z,35.67
2019-03-22T02:58:59.470Z,29.27
2019-03-22T03:01:31.704Z,32.23
2019-03-22T03:04:03.367Z,34.77
2019-03-22T03:06:35.018Z,32.30
2019-03-22T03:09:07.395Z,32.20
2019-03-22T03:11:39.027Z,37.17
2019-03-22T03:14:10.631Z,31.73
2019-03-22T03:16:42.280Z,32.70
2019-03-22T03:19:13.858Z,32.13
2019-03-22T03:21:45.483Z,30.83
2019-03-22T03:24:17.134Z,29.37
2019-03-22T03:26:48.758Z,32.13
2019-03-22T03:29:20.312Z,34.43
2019-03-22T03:31:51.877Z,31.60
2019-03-22T03:34:23.493Z,33.00
2019-03-22T03:36:55.119Z,33.27
2019-03-22T03:39:26.738Z,33.33
2019-03-22T03:41:58.463Z,32.97
2019-03-22T03:44:30.138Z,27.70
2019-03-22T03:47:01.818Z,29.30
2019-03-22T03:49:33.425Z,29.03
2019-03-22T03:52:05.150Z,30.50
2019-03-22T03:54:36.740Z,26.37
2019-03-22T03:57:08.361Z,32.17
2019-03-22T03:59:39.931Z,30.00
2019-03-22T04:02:11.630Z,26.00
2019-03-22T04:04:43.271Z,23.97
2019-03-22T04:07:14.889Z,26.80
2019-03-22T04:09:46.507Z,29.27
2019-03-22T04:12:18.057Z,28.00
2019-03-22T04:14:49.710Z,32.93
2019-03-22T04:17:21.325Z,27.80
2019-03-22T04:19:52.964Z,30.43
2019-03-22T04:22:24.590Z,26.57
2019-03-22T04:24:56.245Z,28.30
2019-03-22T04:27:27.801Z,28.90
2019-03-22T04:29:59.457Z,29.23
2019-03-22T04:32:31.083Z,25.30
2019-03-22T04:35:03.143Z,27.97
2019-03-22T04:37:34.750Z,30.20
2019-03-22T04:40:18.423Z,26.93
2019-03-22T04:42:49.996Z,25.40
2019-03-22T04:45:21.978Z,29.80
2019-03-22T04:47:59.090Z,26.80
2019-03-22T04:50:33.099Z,25.30
2019-03-22T04:53:05.219Z,27.97
2019-03-22T04:55:38.610Z,32.47
2019-03-22T04:58:11.825Z,29.23
2019-03-22T05:00:44.095Z,34.63
2019-03-22T05:03:16.684Z,26.07
2019-03-22T05:05:50.474Z,27.00
2019-03-22T05:08:23.255Z,28.40
2019-03-22T05:10:56.055Z,29.10
2019-03-22T05:13:28.819Z,24.20
2019-03-22T05:16:00.842Z,29.30
2019-03-22T05:18:35.036Z,26.23
2019-03-22T05:21:08.566Z,30.17
2019-03-22T05:23:41.189Z,27.30
2019-03-22T05:26:16.651Z,26.97
2019-03-22T05:28:48.775Z,30.07
2019-03-22T05:31:35.211Z,36.40
2019-03-22T05:34:06.863Z,29.57
2019-03-22T05:36:38.401Z,28.93
2019-03-22T05:39:10.715Z,33.30
2019-03-22T05:41:42.322Z,27.80
2019-03-22T05:44:13.876Z,27.03
2019-03-22T05:46:45.443Z,31.17
2019-03-22T05:49:16.990Z,27.27
2019-03-22T05:51:48.720Z,29.13
2019-03-22T05:54:21.408Z,27.77
2019-03-22T05:56:52.967Z,29.23
2019-03-22T05:59:24.599Z,29.90
2019-03-22T06:01:56.247Z,30.73
2019-03-22T06:04:27.954Z,31.80
2019-03-22T06:06:59.711Z,31.73
2019-03-22T06:09:31.334Z,36.17
2019-03-22T06:12:02.907Z,32.47
2019-03-22T06:14:34.553Z,29.00
2019-03-22T06:17:06.129Z,29.77
2019-03-22T06:19:37.763Z,26.10
2019-03-22T06:22:09.322Z,34.93
2019-03-22T06:24:40.932Z,38.20
2019-03-22T06:27:12.574Z,26.83
2019-03-22T06:29:53.747Z,26.00
2019-03-22T06:32:17.831Z,26.27
2019-03-22T06:34:49.412Z,26.17
2019-03-22T06:37:21.085Z,30.43
2019-03-22T06:39:53.680Z,26.20
2019-03-22T06:42:25.256Z,38.10
2019-03-22T06:44:56.812Z,33.67
2019-03-22T06:47:28.564Z,39.17
2019-03-22T06:50:00.438Z,49.80
2019-03-22T06:52:33.068Z,36.47
2019-03-22T06:55:05.572Z,32.80
2019-03-22T06:57:37.139Z,31.60
2019-03-22T07:00:09.391Z,34.97
2019-03-22T07:02:41.044Z,33.50
2019-03-22T07:05:13.792Z,39.63
2019-03-22T07:07:45.559Z,29.03
2019-03-22T07:10:17.208Z,29.00
2019-03-22T07:12:48.770Z,31.87
2019-03-22T07:15:20.343Z,34.40
2019-03-22T07:17:52.106Z,34.43
2019-03-22T07:20:23.747Z,26.50
2019-03-22T07:22:55.319Z,32.07
2019-03-22T07:25:27.008Z,25.43
2019-03-22T07:27:58.755Z,31.70
2019-03-22T07:30:30.327Z,27.93
2019-03-22T07:33:02.042Z,31.27
2019-03-22T07:35:33.687Z,31.30
2019-03-22T07:38:05.444Z,29.40
2019-03-22T07:40:36.985Z,31.03
2019-03-22T07:43:08.544Z,31.43
2019-03-22T07:45:40.219Z,33.33
2019-03-22T07:48:11.868Z,28.80
2019-03-22T07:50:43.559Z,37.13
2019-03-22T07:53:15.228Z,35.07
2019-03-22T07:55:46.825Z,36.10
2019-03-22T07:58:18.551Z,33.97
2019-03-22T08:00:50.153Z,28.13
2019-03-22T08:03:22.454Z,27.03
2019-03-22T08:05:54.123Z,27.50
2019-03-22T08:08:28.591Z,28.33
2019-03-22T08:11:00.230Z,33.17
2019-03-22T08:13:31.916Z,30.03
2019-03-22T08:16:03.656Z,27.67
2019-03-22T08:18:35.623Z,31.80
2019-03-22T08:21:07.334Z,25.47
2019-03-22T08:23:39.048Z,25.70
2019-03-22T08:26:10.628Z,28.10
2019-03-22T08:28:42.265Z,27.87
2019-03-22T08:31:13.960Z,27.97
2019-03-22T08:33:45.562Z,28.03
2019-03-22T08:36:17.272Z,34.60
2019-03-22T08:38:50.060Z,32.43
2019-03-22T08:41:23.868Z,29.90
2019-03-22T08:43:54.963Z,26.73
2019-03-22T08:46:26.629Z,29.63
2019-03-22T08:48:58.890Z,29.07
2019-03-22T08:51:31.940Z,28.73
2019-03-22T08:54:03.494Z,28.43
2019-03-22T08:56:36.217Z,29.70
2019-03-22T08:59:07.972Z,29.67
2019-03-22T09:01:39.682Z,29.67
2019-03-22T09:04:11.316Z,30.07
2019-03-22T09:06:42.920Z,27.10
2019-03-22T09:09:14.510Z,28.40
2019-03-22T09:11:46.338Z,33.50
2019-03-22T09:14:18.104Z,26.67
2019-03-22T09:16:49.772Z,28.03
2019-03-22T09:19:21.343Z,27.47
2019-03-22T09:21:53.035Z,29.93
2019-03-22T09:24:24.657Z,27.80
2019-03-22T09:26:56.307Z,28.40
2019-03-22T09:29:27.976Z,26.20
2019-03-22T09:31:59.626Z,36.23
2019-03-22T09:34:33.924Z,27.53
2019-03-22T09:37:04.482Z,29.57
2019-03-22T09:39:36.146Z,31.30
2019-03-22T09:42:08.729Z,26.83
2019-03-22T09:44:44.521Z,28.60
2019-03-22T09:47:16.424Z,30.10
2019-03-22T09:49:47.144Z,28.17
2019-03-22T09:52:18.799Z,32.70
2019-03-22T09:54:50.431Z,29.77
2019-03-22T09:57:22.087Z,29.70
2019-03-22T09:59:53.761Z,29.00
2019-03-22T10:02:25.423Z,26.63
2019-03-22T10:05:01.120Z,29.70
2019-03-22T10:07:33.778Z,30.03
2019-03-22T10:10:06.263Z,30.70
2019-03-22T10:12:37.839Z,28.07
2019-03-22T10:15:09.641Z,30.20
2019-03-22T10:17:41.295Z,28.90
2019-03-22T10:20:12.974Z,30.97
2019-03-22T10:22:44.620Z,28.00
2019-03-22T10:25:16.229Z,29.23
2019-03-22T10:27:47.798Z,28.00
2019-03-22T10:30:20.867Z,31.77
2019-03-22T10:32:52.452Z,28.80
2019-03-22T10:35:26.258Z,31.23
2019-03-22T10:38:00.968Z,29.70
2019-03-22T10:40:30.702Z,29.10
2019-03-22T10:43:02.388Z,25.67
2019-03-22T10:45:35.022Z,30.33
2019-03-22T10:48:06.633Z,27.17
2019-03-22T10:50:38.296Z,25.80
2019-03-22T10:53:09.947Z,29.33
2019-03-22T10:55:41.551Z,27.20
2019-03-22T10:58:20.963Z,26.70
2019-03-22T11:00:46.495Z,26.27
2019-03-22T11:03:18.067Z,25.10
2019-03-22T11:05:49.714Z,21.87
2019-03-22T11:08:21.263Z,21.47
2019-03-22T11:10:52.904Z,19.60
2019-03-22T11:13:24.465Z,21.60
2019-03-22T11:15:56.201Z,23.43
2019-03-22T11:18:37.008Z,19.83
2019-03-22T11:21:05.165Z,21.97
2019-03-22T11:23:34.417Z,22.00
2019-03-22T11:26:06.220Z,23.70
2019-03-22T11:28:37.872Z,23.67
2019-03-22T11:31:09.510Z,23.00
2019-03-22T11:33:41.318Z,25.50
2019-03-22T11:36:12.982Z,21.90
2019-03-22T11:38:44.607Z,21.37
2019-03-22T11:41:16.230Z,23.93
2019-03-22T11:43:47.851Z,26.30
2019-03-22T11:46:19.499Z,22.20
2019-03-22T11:48:51.092Z,23.10
2019-03-22T11:51:22.755Z,23.43
2019-03-22T11:53:54.404Z,19.73
2019-03-22T11:56:26.075Z,22.13
2019-03-22T11:58:57.700Z,23.77
2019-03-22T12:01:29.379Z,20.77
2019-03-22T12:04:01.011Z,22.50
2019-03-22T12:06:32.859Z,21.30
2019-03-22T12:09:09.161Z,17.97
2019-03-22T12:11:42.157Z,18.40
2019-03-22T12:14:14.072Z,20.10
2019-03-22T12:16:45.820Z,15.37
2019-03-22T12:19:17.876Z,22.10
2019-03-22T12:21:49.663Z,24.90
2019-03-22T12:24:21.338Z,23.90
2019-03-22T12:26:52.900Z,21.63
2019-03-22T12:29:24.563Z,21.73
2019-03-22T12:31:56.266Z,22.10
2019-03-22T12:34:29.650Z,21.30
2019-03-22T12:37:01.292Z,23.43
2019-03-22T12:39:32.855Z,24.73
2019-03-22T12:42:04.579Z,26.80
2019-03-22T12:44:36.317Z,22.73
2019-03-22T12:47:08.032Z,23.47
2019-03-22T12:49:39.610Z,26.00
2019-03-22T12:52:11.262Z,28.20
2019-03-22T12:54:43.900Z,25.50
2019-03-22T12:57:15.548Z,23.70
2019-03-22T12:59:47.117Z,24.17
2019-03-22T13:02:18.758Z,25.80
2019-03-22T13:04:50.343Z,26.40
2019-03-22T13:07:21.986Z,27.70
2019-03-22T13:09:53.663Z,23.27
2019-03-22T13:12:25.323Z,24.67
2019-03-22T13:14:56.910Z,25.67
2019-03-22T13:17:28.555Z,28.73
2019-03-22T13:20:00.339Z,30.13
2019-03-22T13:22:33.268Z,29.83
2019-03-22T13:25:05.834Z,30.30
2019-03-22T13:27:37.710Z,29.40
2019-03-22T13:30:09.855Z,25.17
2019-03-22T13:32:41.584Z,30.67
2019-03-22T13:35:13.251Z,29.67
2019-03-22T13:37:44.847Z,25.57
2019-03-22T13:40:16.579Z,25.73
2019-03-22T13:42:48.239Z,27.00
2019-03-22T13:45:19.996Z,25.13
2019-03-22T13:47:51.601Z,28.40
2019-03-22T13:50:23.419Z,27.70
2019-03-22T13:52:55.546Z,22.70
2019-03-22T13:55:27.307Z,26.27
2019-03-22T13:57:59.050Z,28.50
2019-03-22T14:00:30.727Z,28.20
2019-03-22T14:03:02.993Z,25.77
2019-03-22T14:05:35.181Z,26.60
2019-03-22T14:08:07.175Z,25.27
2019-03-22T14:10:38.830Z,29.40
2019-03-22T14:13:10.565Z,27.00
2019-03-22T14:15:42.195Z,29.70
2019-03-22T14:18:13.796Z,25.17
2019-03-22T14:20:45.476Z,26.37
2019-03-22T14:23:17.130Z,22.50
2019-03-22T14:25:48.709Z,23.80
2019-03-22T14:28:20.453Z,22.63
2019-03-22T14:30:52.155Z,23.77
2019-03-22T14:33:23.809Z,25.20
2019-03-22T14:35:55.462Z,24.47
2019-03-22T14:38:27.122Z,23.77
2019-03-22T14:40:58.692Z,23.30
2019-03-22T14:43:30.274Z,24.23
2019-03-22T14:46:01.866Z,26.30
2019-03-22T14:48:33.526Z,23.43
2019-03-22T14:51:05.111Z,22.37
2019-03-22T14:53:36.678Z,23.83
2019-03-22T14:56:08.404Z,23.70
2019-03-22T14:58:39.957Z,25.10
2019-03-22T15:01:11.616Z,21.97
2019-03-22T15:03:43.265Z,28.63
2019-03-22T15:06:14.852Z,24.30
2019-03-22T15:08:46.566Z,27.20
2019-03-22T15:11:18.156Z,26.90
2019-03-22T15:14:03.918Z,27.50
2019-03-22T15:17:06.724Z,28.00
2019-03-22T15:19:51.721Z,22.60
2019-03-22T15:22:50.786Z,24.07
2019-03-22T15:25:40.413Z,26.97
2019-03-22T15:28:46.374Z,26.50
2019-03-22T15:31:40.123Z,25.87
2019-03-22T15:34:28.430Z,24.07
2019-03-22T15:37:31.275Z,25.70
2019-03-22T15:40:03.797Z,26.20
2019-03-22T15:42:35.443Z,22.83
2019-03-22T15:45:09.153Z,24.43
2019-03-22T15:47:40.958Z,24.50
2019-03-22T15:50:14.208Z,26.10
2019-03-22T15:52:45.956Z,25.77
2019-03-22T15:55:17.592Z,22.67
2019-03-22T15:57:49.169Z,26.03
2019-03-22T16:00:20.744Z,21.63
2019-03-22T16:02:52.311Z,26.83
2019-03-22T16:05:23.887Z,30.70
2019-03-22T16:07:55.444Z,27.90
2019-03-22T16:10:27.042Z,31.63
2019-03-22T16:12:58.759Z,29.00
2019-03-22T16:15:30.418Z,26.90
2019-03-22T16:18:02.123Z,29.00
2019-03-22T16:20:33.792Z,27.97
2019-03-22T16:23:05.701Z,35.80
2019-03-22T16:25:37.345Z,32.10
2019-03-22T16:28:08.958Z,38.97
2019-03-22T16:30:40.539Z,41.73
2019-03-22T16:33:12.180Z,48.80
2019-03-22T16:35:43.802Z,39.17
2019-03-22T16:38:15.527Z,41.07
2019-03-22T16:40:47.162Z,44.47
2019-03-22T16:43:19.903Z,40.03
2019-03-22T16:45:51.464Z,43.70
2019-03-22T16:48:23.122Z,57.13
2019-03-22T16:50:54.690Z,44.17
2019-03-22T16:53:26.365Z,39.40
2019-03-22T16:55:58.008Z,40.13
2019-03-22T16:58:30.634Z,40.23
2019-03-22T17:01:03.541Z,42.77
2019-03-22T17:03:35.609Z,45.97
2019-03-22T17:06:07.636Z,40.37
2019-03-22T17:08:39.365Z,48.60
2019-03-22T17:11:10.947Z,36.80
2019-03-22T17:13:42.495Z,43.43
2019-03-22T17:16:14.076Z,45.00
2019-03-22T17:18:45.778Z,49.80
2019-03-22T17:21:17.445Z,42.23
2019-03-22T17:23:49.335Z,44.53
2019-03-22T17:26:21.006Z,47.40
2019-03-22T17:28:52.603Z,43.57
2019-03-22T17:31:24.191Z,47.63
2019-03-22T17:33:56.914Z,43.90
2019-03-22T17:36:28.478Z,50.03
2019-03-22T17:39:00.203Z,44.03
2019-03-22T17:41:31.834Z,44.13
2019-03-22T17:44:04.771Z,47.40
2019-03-22T17:46:36.330Z,53.97
2019-03-22T17:49:07.905Z,48.63
2019-03-22T17:51:39.483Z,45.07
2019-03-22T17:54:11.348Z,36.70
2019-03-22T17:56:44.379Z,38.87
2019-03-22T17:59:15.953Z,37.00
2019-03-22T18:01:47.704Z,36.50
2019-03-22T18:04:24.137Z,34.53
2019-03-22T18:06:52.579Z,33.93
2019-03-22T18:09:24.172Z,30.80
2019-03-22T18:11:55.828Z,30.23
2019-03-22T18:14:28.528Z,31.13
2019-03-22T18:17:00.110Z,34.60
2019-03-22T18:19:32.688Z,32.77
2019-03-22T18:22:05.380Z,33.03
2019-03-22T18:24:36.989Z,30.57
2019-03-22T18:27:08.835Z,28.30
2019-03-22T18:29:40.571Z,35.10
2019-03-22T18:32:12.308Z,30.97
2019-03-22T18:34:44.058Z,28.47
2019-03-22T18:37:15.623Z,34.77
2019-03-22T18:39:47.426Z,30.37
2019-03-22T18:42:19.175Z,34.73
2019-03-22T18:44:50.760Z,37.33
2019-03-22T18:47:23.517Z,35.27
2019-03-22T18:49:55.119Z,31.17
2019-03-22T18:52:26.792Z,29.87
2019-03-22T18:54:58.485Z,33.00
2019-03-22T18:57:30.124Z,36.23
2019-03-22T19:00:01.880Z,33.57
2019-03-22T19:02:33.887Z,34.80
2019-03-22T19:05:06.345Z,36.23
2019-03-22T19:07:38.023Z,35.90
2019-03-22T19:10:10.436Z,31.90
2019-03-22T19:12:42.209Z,35.70
2019-03-22T19:15:15.010Z,41.43
2019-03-22T19:17:46.688Z,42.23
2019-03-22T19:20:18.499Z,37.40
2019-03-22T19:22:50.167Z,35.47
2019-03-22T19:25:21.931Z,45.60
2019-03-22T19:27:54.646Z,33.97
2019-03-22T19:30:26.471Z,35.90
2019-03-22T19:32:58.203Z,30.60
2019-03-22T19:35:29.784Z,33.10
2019-03-22T19:38:01.455Z,41.30
2019-03-22T19:40:33.044Z,37.07
2019-03-22T19:43:04.816Z,41.53
2019-03-22T19:45:36.467Z,43.40
2019-03-22T19:48:08.130Z,34.63
2019-03-22T19:50:39.899Z,37.10
2019-03-22T19:53:11.632Z,29.60
2019-03-22T19:55:43.399Z,30.17
2019-03-22T19:58:15.100Z,30.30
2019-03-22T20:00:46.855Z,25.53
2019-03-22T20:03:18.483Z,25.57
2019-03-22T20:05:50.101Z,24.70
2019-03-22T20:08:21.794Z,23.53
2019-03-22T20:10:53.423Z,25.73
2019-03-22T20:13:25.001Z,22.40
2019-03-22T20:15:56.639Z,25.37
2019-03-22T20:18:29.259Z,21.63
2019-03-22T20:21:01.010Z,35.60
2019-03-22T20:23:32.679Z,23.17
2019-03-22T20:26:04.330Z,31.00
2019-03-22T20:28:35.983Z,26.03
2019-03-22T20:31:07.569Z,32.17
2019-03-22T20:33:39.200Z,28.90
2019-03-22T20:36:10.957Z,29.77
2019-03-22T20:38:43.756Z,33.43
2019-03-22T20:41:15.399Z,26.23
2019-03-22T20:43:47.055Z,28.13
2019-03-22T20:46:18.716Z,27.80
2019-03-22T20:48:50.559Z,34.00
2019-03-22T20:51:22.198Z,28.30
2019-03-22T20:53:53.877Z,28.33
2019-03-22T20:56:25.526Z,27.90
2019-03-22T20:58:57.114Z,24.90
2019-03-22T21:01:28.758Z,29.57
2019-03-22T21:04:00.526Z,32.77
2019-03-22T21:06:32.184Z,29.67
2019-03-22T21:09:05.546Z,31.77
2019-03-22T21:11:37.180Z,29.23
2019-03-22T21:14:08.808Z,25.83
2019-03-22T21:16:40.620Z,37.03
2019-03-22T21:19:12.255Z,22.67
2019-03-22T21:21:43.852Z,28.10
2019-03-22T21:24:15.490Z,34.40
2019-03-22T21:26:48.081Z,21.03
2019-03-22T21:29:19.781Z,22.57
2019-03-22T21:31:51.423Z,30.50
2019-03-22T21:34:23.108Z,24.23
2019-03-22T21:36:55.926Z,25.40
2019-03-22T21:39:27.663Z,23.80
2019-03-22T21:41:59.415Z,25.40
2019-03-22T21:44:31.041Z,27.30
2019-03-22T21:47:02.776Z,30.80
2019-03-22T21:49:34.520Z,24.80
2019-03-22T21:52:06.327Z,27.50
2019-03-22T21:54:38.926Z,24.43
2019-03-22T21:57:10.511Z,26.73
2019-03-22T21:59:42.078Z,24.80
2019-03-22T22:02:13.720Z,26.47
2019-03-22T22:04:45.456Z,31.60
2019-03-22T22:07:17.017Z,28.13
2019-03-22T22:09:48.665Z,33.30
2019-03-22T22:12:20.271Z,34.90
2019-03-22T22:14:51.836Z,30.37
2019-03-22T22:17:23.977Z,25.80
2019-03-22T22:19:55.625Z,30.10
2019-03-22T22:22:27.249Z,33.00
2019-03-22T22:24:58.908Z,26.90
2019-03-22T22:27:30.570Z,29.23
2019-03-22T22:30:02.260Z,23.37
2019-03-22T22:32:35.174Z,26.83
2019-03-22T22:35:07.779Z,28.80
2019-03-22T22:37:39.847Z,27.43
2019-03-22T22:40:11.828Z,26.73
2019-03-22T22:42:43.487Z,24.87
2019-03-22T22:45:15.111Z,25.97
2019-03-22T22:47:46.732Z,25.10
2019-03-22T22:50:19.199Z,23.67
2019-03-22T22:52:50.865Z,26.60
2019-03-22T22:55:22.543Z,27.53
2019-03-22T22:57:54.186Z,24.63
2019-03-22T23:00:27.845Z,24.30
2019-03-22T23:03:01.030Z,26.50
2019-03-22T23:05:32.703Z,26.63
2019-03-22T23:08:04.602Z,30.80
2019-03-22T23:10:36.359Z,33.87
2019-03-22T23:13:07.913Z,26.07
2019-03-22T23:15:39.568Z,28.43
2019-03-22T23:18:11.127Z,28.40
2019-03-22T23:20:42.831Z,29.77
2019-03-22T23:23:14.435Z,32.10
2019-03-22T23:25:46.137Z,29.30
2019-03-22T23:28:17.750Z,33.67
2019-03-22T23:30:50.551Z,28.10
2019-03-22T23:33:23.273Z,29.23
2019-03-22T23:35:54.959Z,35.03
2019-03-22T23:38:26.577Z,31.83
2019-03-22T23:40:58.230Z,32.53
2019-03-22T23:43:29.898Z,35.50
2019-03-22T23:46:01.552Z,31.97
2019-03-22T23:48:33.207Z,33.40
2019-03-22T23:51:04.861Z,34.57
2019-03-22T23:53:36.466Z,33.63
2019-03-22T23:56:08.039Z,29.20
2019-03-22T23:58:39.616Z,36.60
